createdAt,value
2019-03-15T00:00:49.898Z,8.80
2019-03-15T00:03:18.871Z,10.50
2019-03-15T00:05:47.873Z,7.13
2019-03-15T00:08:16.927Z,11.07
2019-03-15T00:10:46.000Z,5.93
2019-03-15T00:13:15.043Z,7.07
2019-03-15T00:15:44.037Z,6.00
2019-03-15T00:18:13.017Z,8.00
2019-03-15T00:20:42.025Z,5.60
2019-03-15T00:23:11.051Z,4.57
2019-03-15T00:25:40.142Z,6.87
2019-03-15T00:28:09.045Z,10.07
2019-03-15T00:30:38.124Z,6.37
2019-03-15T00:33:07.104Z,8.20
2019-03-15T00:35:36.173Z,6.33
2019-03-15T00:38:05.226Z,6.90
2019-03-15T00:40:34.293Z,8.03
2019-03-15T00:43:03.360Z,6.77
2019-03-15T00:45:32.436Z,7.70
2019-03-15T00:48:01.486Z,5.73
2019-03-15T00:50:30.558Z,7.07
2019-03-15T00:52:59.606Z,8.63
2019-03-15T00:55:28.694Z,8.97
2019-03-15T00:57:57.727Z,7.60
2019-03-15T01:00:26.979Z,11.00
2019-03-15T01:02:55.947Z,6.27
2019-03-15T01:05:25.020Z,9.37
2019-03-15T01:07:54.008Z,7.53
2019-03-15T01:10:23.005Z,8.87
2019-03-15T01:12:52.064Z,9.13
2019-03-15T01:15:21.148Z,6.23
2019-03-15T01:17:50.130Z,6.03
2019-03-15T01:20:19.214Z,7.23
2019-03-15T01:22:48.260Z,7.20
2019-03-15T01:25:17.333Z,7.83
2019-03-15T01:27:46.424Z,9.10
2019-03-15T01:30:15.482Z,6.77
2019-03-15T01:32:44.528Z,11.27
2019-03-15T01:35:13.604Z,9.43
2019-03-15T01:37:42.641Z,8.63
2019-03-15T01:40:11.733Z,11.13
2019-03-15T01:42:40.799Z,7.93
2019-03-15T01:45:09.977Z,6.53
2019-03-15T01:47:39.202Z,6.33
2019-03-15T01:50:08.899Z,8.47
2019-03-15T01:52:37.968Z,7.10
2019-03-15T01:55:07.468Z,9.70
2019-03-15T01:57:36.510Z,11.47
2019-03-15T02:00:05.969Z,7.03
2019-03-15T02:02:35.013Z,8.20
2019-03-15T02:05:04.110Z,7.57
2019-03-15T02:07:33.164Z,7.27
2019-03-15T02:10:02.231Z,7.77
2019-03-15T02:12:31.201Z,8.00
2019-03-15T02:15:00.301Z,6.10
2019-03-15T02:17:29.318Z,7.80
2019-03-15T02:19:58.357Z,7.23
2019-03-15T02:22:27.355Z,8.53
2019-03-15T02:24:56.412Z,10.10
2019-03-15T02:27:25.477Z,8.37
2019-03-15T02:29:54.455Z,8.00
2019-03-15T02:32:23.476Z,10.03
2019-03-15T02:34:53.411Z,10.20
2019-03-15T02:37:23.041Z,9.23
2019-03-15T02:39:52.020Z,5.40
2019-03-15T02:42:21.039Z,11.23
2019-03-15T02:44:50.248Z,10.13
2019-03-15T02:47:19.649Z,6.40
2019-03-15T02:49:48.931Z,9.87
2019-03-15T02:52:17.944Z,7.20
2019-03-15T02:54:46.999Z,6.40
2019-03-15T02:57:16.090Z,9.10
2019-03-15T02:59:45.146Z,6.00
2019-03-15T03:02:14.161Z,10.77
2019-03-15T03:04:43.220Z,11.33
2019-03-15T03:07:12.321Z,7.47
2019-03-15T03:09:41.371Z,10.37
2019-03-15T03:12:10.464Z,10.40
2019-03-15T03:14:39.454Z,7.57
2019-03-15T03:17:08.537Z,7.27
2019-03-15T03:19:37.517Z,10.30
2019-03-15T03:22:06.596Z,10.93
2019-03-15T03:24:35.579Z,8.33
2019-03-15T03:27:04.667Z,8.47
2019-03-15T03:29:33.646Z,9.03
2019-03-15T03:32:02.731Z,11.70
2019-03-15T03:34:31.660Z,8.77
2019-03-15T03:37:00.713Z,12.93
2019-03-15T03:39:29.769Z,8.80
2019-03-15T03:41:59.238Z,9.30
2019-03-15T03:44:28.359Z,10.07
2019-03-15T03:46:57.422Z,9.33
2019-03-15T03:49:27.436Z,9.23
2019-03-15T03:51:56.625Z,10.57
2019-03-15T03:54:25.683Z,11.30
2019-03-15T03:56:54.752Z,9.83
2019-03-15T03:59:23.811Z,7.83
2019-03-15T04:01:52.896Z,11.53
2019-03-15T04:04:22.028Z,13.40
2019-03-15T04:06:51.106Z,6.93
2019-03-15T04:09:20.093Z,10.10
2019-03-15T04:11:55.349Z,6.17
2019-03-15T04:14:19.885Z,11.53
2019-03-15T04:16:48.949Z,11.67
2019-03-15T04:19:17.933Z,10.10
2019-03-15T04:21:47.008Z,11.87
2019-03-15T04:24:16.063Z,8.53
2019-03-15T04:26:45.141Z,7.80
2019-03-15T04:29:14.223Z,7.97
2019-03-15T04:31:43.293Z,9.73
2019-03-15T04:34:12.343Z,9.93
2019-03-15T04:36:41.418Z,10.30
2019-03-15T04:39:13.669Z,10.43
2019-03-15T04:41:41.135Z,8.57
2019-03-15T04:44:10.212Z,11.40
2019-03-15T04:46:39.302Z,9.23
2019-03-15T04:49:08.342Z,8.80
2019-03-15T04:51:37.435Z,8.53
2019-03-15T04:54:06.489Z,9.57
2019-03-15T04:56:35.558Z,8.50
2019-03-15T04:59:04.621Z,10.63
2019-03-15T05:01:33.622Z,15.03
2019-03-15T05:04:02.676Z,10.33
2019-03-15T05:06:31.768Z,10.17
2019-03-15T05:09:00.828Z,13.73
2019-03-15T05:11:29.909Z,10.87
2019-03-15T05:13:59.307Z,12.40
2019-03-15T05:16:28.431Z,11.20
2019-03-15T05:18:57.492Z,10.07
2019-03-15T05:21:26.573Z,11.67
2019-03-15T05:23:55.704Z,7.53
2019-03-15T05:26:24.764Z,12.97
2019-03-15T05:28:53.838Z,11.17
2019-03-15T05:31:22.828Z,10.23
2019-03-15T05:33:51.909Z,10.53
2019-03-15T05:36:20.968Z,12.13
2019-03-15T05:38:49.893Z,8.93
2019-03-15T05:41:18.941Z,7.87
2019-03-15T05:43:48.049Z,12.23
2019-03-15T05:46:17.035Z,8.10
2019-03-15T05:48:46.110Z,8.73
2019-03-15T05:51:15.018Z,9.30
2019-03-15T05:53:44.094Z,8.60
2019-03-15T05:56:12.997Z,10.20
2019-03-15T05:58:42.081Z,9.10
2019-03-15T06:01:11.140Z,11.77
2019-03-15T06:03:48.387Z,9.53
2019-03-15T06:06:10.996Z,10.30
2019-03-15T06:08:40.071Z,11.57
2019-03-15T06:11:09.063Z,10.07
2019-03-15T06:13:38.215Z,12.33
2019-03-15T06:16:07.273Z,10.00
2019-03-15T06:18:36.353Z,8.70
2019-03-15T06:21:05.406Z,14.03
2019-03-15T06:23:34.485Z,10.53
2019-03-15T06:26:03.553Z,12.07
2019-03-15T06:28:32.636Z,12.97
2019-03-15T06:31:01.618Z,13.50
2019-03-15T06:33:30.696Z,12.87
2019-03-15T06:35:59.677Z,13.00
2019-03-15T06:38:28.687Z,15.90
2019-03-15T06:40:57.745Z,11.43
2019-03-15T06:43:26.845Z,9.87
2019-03-15T06:45:55.905Z,12.07
2019-03-15T06:48:24.987Z,10.77
2019-03-15T06:50:54.036Z,9.77
2019-03-15T06:53:23.119Z,12.10
2019-03-15T06:55:52.175Z,15.50
2019-03-15T06:58:21.111Z,13.17
2019-03-15T07:00:50.094Z,12.03
2019-03-15T07:03:19.105Z,16.47
2019-03-15T07:05:48.162Z,14.03
2019-03-15T07:08:17.171Z,10.90
2019-03-15T07:10:46.226Z,13.70
2019-03-15T07:13:15.159Z,13.00
2019-03-15T07:15:44.645Z,15.13
2019-03-15T07:18:13.904Z,12.77
2019-03-15T07:20:42.973Z,13.30
2019-03-15T07:23:12.054Z,11.80
2019-03-15T07:25:41.120Z,14.90
2019-03-15T07:28:10.208Z,9.03
2019-03-15T07:30:39.256Z,14.43
2019-03-15T07:33:08.256Z,9.43
2019-03-15T07:35:37.314Z,14.93
2019-03-15T07:38:06.390Z,12.60
2019-03-15T07:40:35.443Z,15.63
2019-03-15T07:43:05.448Z,12.87
2019-03-15T07:45:34.594Z,13.17
2019-03-15T07:48:03.672Z,12.80
2019-03-15T07:50:32.655Z,12.63
2019-03-15T07:53:01.726Z,9.03
2019-03-15T07:55:30.703Z,13.40
2019-03-15T07:58:00.364Z,12.13
2019-03-15T08:00:29.416Z,12.30
2019-03-15T08:02:58.500Z,9.83
2019-03-15T08:05:27.552Z,9.80
2019-03-15T08:07:56.632Z,12.73
2019-03-15T08:10:25.612Z,13.13
2019-03-15T08:12:54.697Z,11.63
2019-03-15T08:15:23.681Z,11.10
2019-03-15T08:17:52.765Z,13.30
2019-03-15T08:20:21.898Z,12.30
2019-03-15T08:22:50.974Z,11.37
2019-03-15T08:25:20.028Z,11.80
2019-03-15T08:27:49.234Z,10.90
2019-03-15T08:30:18.360Z,10.47
2019-03-15T08:32:47.421Z,12.30
2019-03-15T08:35:16.599Z,13.23
2019-03-15T08:37:45.659Z,10.00
2019-03-15T08:40:14.743Z,9.73
2019-03-15T08:42:43.825Z,14.27
2019-03-15T08:45:13.714Z,10.93
2019-03-15T08:47:42.788Z,13.97
2019-03-15T08:50:14.967Z,12.47
2019-03-15T08:52:43.878Z,9.40
2019-03-15T08:55:12.968Z,6.77
2019-03-15T08:57:42.031Z,7.27
2019-03-15T09:00:11.797Z,11.20
2019-03-15T09:02:40.855Z,13.07
2019-03-15T09:05:10.130Z,11.00
2019-03-15T09:07:39.112Z,11.83
2019-03-15T09:10:21.905Z,9.07
2019-03-15T09:12:39.780Z,8.93
2019-03-15T09:15:09.183Z,10.57
2019-03-15T09:17:38.230Z,6.77
2019-03-15T09:20:07.335Z,8.03
2019-03-15T09:22:37.908Z,12.07
2019-03-15T09:25:18.469Z,9.20
2019-03-15T09:27:38.391Z,10.23
2019-03-15T09:30:22.079Z,12.63
2019-03-15T09:32:39.161Z,9.20
2019-03-15T09:35:08.272Z,8.30
2019-03-15T09:37:37.326Z,9.43
2019-03-15T09:40:06.995Z,9.13
2019-03-15T09:42:36.092Z,11.20
2019-03-15T09:45:05.556Z,11.53
2019-03-15T09:47:34.596Z,7.30
2019-03-15T09:50:03.677Z,9.53
2019-03-15T09:52:32.744Z,8.13
2019-03-15T09:55:01.761Z,7.37
2019-03-15T09:57:30.742Z,7.43
2019-03-15T09:59:59.824Z,8.67
2019-03-15T10:02:30.545Z,6.57
2019-03-15T10:05:10.174Z,7.57
2019-03-15T10:07:38.517Z,11.93
2019-03-15T10:10:13.050Z,10.13
2019-03-15T10:12:32.057Z,8.00
2019-03-15T10:15:01.066Z,7.50
2019-03-15T10:17:30.169Z,6.87
2019-03-15T10:19:59.196Z,7.73
2019-03-15T10:22:28.256Z,5.63
2019-03-15T10:24:57.331Z,5.73
2019-03-15T10:27:26.317Z,6.07
2019-03-15T10:29:55.485Z,7.77
2019-03-15T10:32:24.535Z,4.63
2019-03-15T10:34:53.622Z,3.03
2019-03-15T10:37:22.603Z,4.73
2019-03-15T10:39:51.698Z,3.30
2019-03-15T10:42:20.760Z,3.17
2019-03-15T10:44:49.870Z,4.80
2019-03-15T10:47:18.925Z,6.67
2019-03-15T10:49:47.999Z,7.70
2019-03-15T10:52:17.045Z,7.07
2019-03-15T10:54:46.059Z,5.03
2019-03-15T10:57:15.210Z,9.63
2019-03-15T10:59:44.293Z,5.87
2019-03-15T11:02:13.368Z,4.53
2019-03-15T11:04:42.449Z,4.63
2019-03-15T11:07:11.501Z,4.30
2019-03-15T11:09:40.501Z,4.83
2019-03-15T11:12:09.554Z,6.63
2019-03-15T11:14:38.631Z,4.77
2019-03-15T11:17:07.703Z,4.33
2019-03-15T11:19:36.877Z,3.17
2019-03-15T11:22:05.923Z,6.03
2019-03-15T11:24:35.003Z,4.90
2019-03-15T11:27:03.990Z,3.23
2019-03-15T11:29:33.061Z,3.93
2019-03-15T11:32:02.126Z,6.03
2019-03-15T11:34:31.126Z,5.37
2019-03-15T11:37:03.266Z,6.00
2019-03-15T11:39:30.990Z,5.47
2019-03-15T11:41:59.969Z,6.03
2019-03-15T11:44:29.065Z,5.53
2019-03-15T11:46:58.063Z,4.87
2019-03-15T11:49:28.387Z,5.63
2019-03-15T11:51:57.580Z,3.60
2019-03-15T11:54:26.564Z,5.47
2019-03-15T11:56:55.638Z,4.87
2019-03-15T11:59:24.687Z,5.47
2019-03-15T12:02:03.327Z,4.50
2019-03-15T12:04:24.560Z,4.47
2019-03-15T12:06:53.569Z,5.27
2019-03-15T12:09:22.474Z,6.50
2019-03-15T12:11:51.558Z,3.73
2019-03-15T12:14:20.610Z,5.23
2019-03-15T12:16:49.687Z,3.50
2019-03-15T12:19:18.749Z,3.23
2019-03-15T12:21:47.828Z,2.77
2019-03-15T12:24:17.073Z,3.37
2019-03-15T12:26:46.162Z,3.00
2019-03-15T12:29:15.141Z,4.00
2019-03-15T12:31:44.227Z,2.77
2019-03-15T12:34:13.296Z,2.30
2019-03-15T12:36:42.384Z,3.10
2019-03-15T12:39:11.434Z,4.77
2019-03-15T12:41:40.516Z,2.90
2019-03-15T12:44:10.629Z,2.67
2019-03-15T12:46:39.789Z,2.80
2019-03-15T12:49:08.761Z,2.87
2019-03-15T12:51:37.703Z,2.60
2019-03-15T12:54:06.754Z,2.17
2019-03-15T12:56:35.829Z,4.20
2019-03-15T12:59:04.897Z,2.53
2019-03-15T13:01:33.988Z,3.77
2019-03-15T13:04:02.980Z,4.97
2019-03-15T13:06:32.057Z,5.30
2019-03-15T13:09:01.118Z,5.33
2019-03-15T13:11:30.123Z,4.97
2019-03-15T13:13:59.910Z,2.57
2019-03-15T13:16:29.072Z,2.10
2019-03-15T13:18:58.136Z,3.03
2019-03-15T13:21:27.206Z,2.67
2019-03-15T13:23:56.349Z,2.90
2019-03-15T13:26:28.747Z,4.47
2019-03-15T13:28:56.122Z,2.80
2019-03-15T13:31:25.130Z,1.83
2019-03-15T13:33:54.149Z,3.00
2019-03-15T13:36:23.223Z,2.63
2019-03-15T13:38:52.330Z,1.63
2019-03-15T13:41:21.402Z,1.97
2019-03-15T13:43:50.486Z,1.30
2019-03-15T13:46:19.492Z,1.53
2019-03-15T13:48:48.780Z,1.50
2019-03-15T13:51:17.861Z,1.67
2019-03-15T13:53:46.931Z,1.57
2019-03-15T13:56:15.928Z,1.50
2019-03-15T13:58:56.744Z,2.10
2019-03-15T14:01:15.793Z,1.60
2019-03-15T14:03:44.767Z,2.70
2019-03-15T14:06:13.849Z,2.27
2019-03-15T14:08:42.900Z,1.87
2019-03-15T14:11:11.977Z,1.53
2019-03-15T14:13:40.958Z,1.37
2019-03-15T14:16:11.342Z,0.90
2019-03-15T14:18:40.391Z,1.13
2019-03-15T14:21:09.474Z,1.17
2019-03-15T14:23:38.533Z,1.43
2019-03-15T14:26:07.626Z,2.03
2019-03-15T14:28:36.604Z,1.33
2019-03-15T14:31:07.500Z,1.40
2019-03-15T14:33:36.477Z,2.60
2019-03-15T14:36:05.549Z,2.10
2019-03-15T14:38:34.918Z,2.00
2019-03-15T14:41:05.150Z,2.07
2019-03-15T14:43:35.037Z,3.87
2019-03-15T14:46:04.123Z,1.93
2019-03-15T14:48:33.172Z,2.70
2019-03-15T14:51:02.232Z,1.87
2019-03-15T14:53:31.309Z,3.23
2019-03-15T14:56:00.379Z,2.10
2019-03-15T14:58:29.451Z,2.10
2019-03-15T15:00:58.509Z,2.60
2019-03-15T15:03:27.598Z,3.87
2019-03-15T15:05:56.652Z,2.97
2019-03-15T15:08:25.665Z,2.93
2019-03-15T15:10:54.657Z,3.13
2019-03-15T15:13:23.736Z,2.70
2019-03-15T15:15:52.811Z,3.30
2019-03-15T15:18:21.910Z,3.17
2019-03-15T15:20:50.986Z,2.47
2019-03-15T15:23:20.074Z,2.47
2019-03-15T15:25:49.134Z,2.30
2019-03-15T15:28:18.139Z,3.03
2019-03-15T15:30:47.219Z,3.40
2019-03-15T15:33:16.299Z,3.90
2019-03-15T15:35:45.367Z,5.80
2019-03-15T15:38:14.446Z,1.40
2019-03-15T15:40:43.506Z,3.10
2019-03-15T15:43:12.615Z,2.63
2019-03-15T15:45:41.758Z,2.70
2019-03-15T15:48:11.700Z,2.70
2019-03-15T15:50:40.761Z,2.37
2019-03-15T15:53:11.205Z,3.67
2019-03-15T15:55:40.385Z,5.03
2019-03-15T15:58:17.888Z,4.03
2019-03-15T16:00:40.269Z,2.67
2019-03-15T16:03:09.356Z,3.23
2019-03-15T16:05:38.412Z,4.23
2019-03-15T16:08:07.491Z,3.97
2019-03-15T16:10:36.560Z,4.20
2019-03-15T16:13:16.576Z,4.17
2019-03-15T16:15:36.434Z,3.03
2019-03-15T16:18:05.527Z,3.87
2019-03-15T16:20:34.584Z,3.57
2019-03-15T16:23:03.667Z,4.00
2019-03-15T16:25:32.813Z,4.57
2019-03-15T16:28:01.910Z,3.27
2019-03-15T16:30:30.973Z,4.47
2019-03-15T16:32:59.989Z,2.43
2019-03-15T16:35:29.045Z,3.20
2019-03-15T16:38:13.052Z,2.47
2019-03-15T16:40:42.103Z,2.90
2019-03-15T16:43:11.211Z,2.10
2019-03-15T16:45:40.269Z,3.67
2019-03-15T16:48:09.349Z,3.10
2019-03-15T16:50:38.548Z,3.33
2019-03-15T16:53:07.674Z,4.17
2019-03-15T16:55:36.745Z,5.43
2019-03-15T16:58:05.843Z,4.03
2019-03-15T17:00:34.923Z,4.37
2019-03-15T17:03:04.000Z,5.00
2019-03-15T17:05:33.120Z,3.40
2019-03-15T17:08:02.178Z,3.47
2019-03-15T17:10:31.186Z,3.80
2019-03-15T17:13:00.173Z,4.37
2019-03-15T17:15:29.284Z,3.87
2019-03-15T17:17:58.347Z,5.37
2019-03-15T17:20:27.426Z,5.53
2019-03-15T17:22:56.483Z,6.50
2019-03-15T17:25:25.575Z,5.73
2019-03-15T17:28:00.375Z,4.33
2019-03-15T17:30:30.089Z,3.87
2019-03-15T17:32:59.143Z,4.60
2019-03-15T17:35:28.228Z,2.17
2019-03-15T17:37:57.278Z,5.03
2019-03-15T17:40:26.365Z,3.37
2019-03-15T17:42:55.444Z,3.53
2019-03-15T17:45:24.571Z,6.47
2019-03-15T17:47:53.664Z,4.23
2019-03-15T17:50:22.794Z,4.50
2019-03-15T17:52:51.859Z,4.57
2019-03-15T17:55:20.951Z,3.60
2019-03-15T17:57:50.010Z,3.47
2019-03-15T18:00:34.926Z,5.57
2019-03-15T18:03:19.276Z,4.43
2019-03-15T18:05:35.182Z,3.53
2019-03-15T18:08:04.246Z,3.73
2019-03-15T18:10:33.392Z,4.33
2019-03-15T18:13:02.441Z,2.83
2019-03-15T18:15:31.523Z,5.50
2019-03-15T18:18:00.507Z,2.87
2019-03-15T18:20:29.589Z,4.20
2019-03-15T18:22:58.644Z,3.57
2019-03-15T18:25:27.914Z,4.53
2019-03-15T18:27:56.979Z,2.93
2019-03-15T18:30:26.054Z,3.67
2019-03-15T18:32:55.109Z,5.33
2019-03-15T18:35:33.726Z,3.33
2019-03-15T18:37:54.984Z,4.73
2019-03-15T18:40:24.066Z,6.57
2019-03-15T18:42:53.120Z,3.83
2019-03-15T18:45:22.221Z,3.30
2019-03-15T18:47:51.280Z,5.87
2019-03-15T18:50:21.642Z,3.17
2019-03-15T18:52:50.766Z,5.70
2019-03-15T18:55:19.867Z,4.83
2019-03-15T18:57:48.910Z,5.17
2019-03-15T19:00:18.770Z,4.30
2019-03-15T19:02:47.852Z,5.60
2019-03-15T19:05:16.943Z,3.37
2019-03-15T19:07:46.197Z,2.57
2019-03-15T19:10:15.437Z,3.57
2019-03-15T19:12:44.483Z,3.87
2019-03-15T19:15:14.144Z,3.43
2019-03-15T19:17:43.320Z,4.53
2019-03-15T19:20:12.565Z,2.53
2019-03-15T19:22:41.550Z,3.80
2019-03-15T19:25:10.645Z,3.57
2019-03-15T19:27:39.708Z,2.40
2019-03-15T19:30:10.041Z,4.07
2019-03-15T19:32:39.175Z,3.10
2019-03-15T19:35:08.742Z,3.40
2019-03-15T19:37:37.835Z,5.93
2019-03-15T19:40:07.969Z,3.83
2019-03-15T19:42:37.039Z,2.50
2019-03-15T19:45:07.078Z,2.53
2019-03-15T19:47:36.196Z,4.20
2019-03-15T19:50:07.107Z,2.43
2019-03-15T19:52:36.158Z,5.30
2019-03-15T19:55:05.632Z,4.47
2019-03-15T19:57:34.732Z,9.07
2019-03-15T20:00:08.037Z,2.57
2019-03-15T20:02:34.619Z,2.80
2019-03-15T20:05:03.800Z,7.37
2019-03-15T20:07:32.875Z,2.20
2019-03-15T20:10:01.943Z,3.47
2019-03-15T20:12:30.990Z,2.27
2019-03-15T20:15:00.077Z,2.13
2019-03-15T20:17:29.299Z,3.53
2019-03-15T20:19:58.374Z,3.87
2019-03-15T20:22:27.359Z,3.43
2019-03-15T20:24:56.425Z,4.60
2019-03-15T20:27:25.514Z,6.57
2019-03-15T20:29:54.577Z,6.40
2019-03-15T20:32:23.657Z,4.47
2019-03-15T20:34:52.640Z,1.97
2019-03-15T20:37:21.723Z,4.33
2019-03-15T20:39:50.722Z,5.00
2019-03-15T20:42:19.795Z,3.73
2019-03-15T20:44:48.875Z,3.97
2019-03-15T20:47:17.898Z,5.97
2019-03-15T20:49:46.806Z,2.70
2019-03-15T20:52:15.876Z,2.00
2019-03-15T20:54:44.935Z,5.50
2019-03-15T20:57:14.017Z,3.17
2019-03-15T20:59:43.072Z,4.73
2019-03-15T21:02:12.243Z,5.60
2019-03-15T21:04:41.308Z,3.63
2019-03-15T21:07:10.381Z,7.83
2019-03-15T21:09:39.368Z,4.40
2019-03-15T21:12:08.441Z,3.63
2019-03-15T21:14:37.497Z,4.30
2019-03-15T21:17:06.576Z,4.50
2019-03-15T21:19:35.647Z,8.10
2019-03-15T21:22:04.720Z,5.23
2019-03-15T21:24:33.772Z,8.10
2019-03-15T21:27:02.851Z,3.70
2019-03-15T21:29:31.827Z,4.37
2019-03-15T21:32:01.023Z,6.83
2019-03-15T21:34:30.072Z,6.30
2019-03-15T21:36:59.080Z,5.73
2019-03-15T21:39:28.124Z,4.67
2019-03-15T21:41:57.134Z,5.60
2019-03-15T21:44:26.159Z,4.57
2019-03-15T21:46:55.154Z,3.97
2019-03-15T21:49:24.210Z,4.67
2019-03-15T21:51:53.302Z,6.57
2019-03-15T21:54:22.367Z,5.57
2019-03-15T21:56:51.392Z,5.87
2019-03-15T21:59:20.359Z,2.97
2019-03-15T22:01:49.443Z,3.63
2019-03-15T22:04:18.499Z,5.17
2019-03-15T22:06:47.591Z,6.67
2019-03-15T22:09:16.646Z,5.03
2019-03-15T22:11:45.726Z,5.00
2019-03-15T22:14:14.711Z,6.40
2019-03-15T22:16:43.796Z,7.53
2019-03-15T22:19:12.788Z,5.23
2019-03-15T22:21:41.866Z,4.27
2019-03-15T22:24:10.838Z,5.03
2019-03-15T22:26:39.850Z,4.90
2019-03-15T22:29:08.896Z,5.77
2019-03-15T22:31:37.971Z,7.83
2019-03-15T22:34:07.036Z,5.60
2019-03-15T22:36:36.110Z,3.80
2019-03-15T22:39:06.320Z,6.43
2019-03-15T22:41:35.865Z,6.40
2019-03-15T22:44:05.138Z,4.50
2019-03-15T22:46:34.213Z,4.60
2019-03-15T22:49:03.267Z,7.13
2019-03-15T22:51:32.342Z,6.80
2019-03-15T22:54:01.395Z,6.03
2019-03-15T22:56:30.475Z,4.53
2019-03-15T22:58:59.462Z,5.30
2019-03-15T23:01:30.434Z,10.87
2019-03-15T23:03:59.344Z,3.47
2019-03-15T23:06:28.424Z,5.07
2019-03-15T23:08:57.493Z,6.73
2019-03-15T23:11:26.557Z,8.73
2019-03-15T23:13:55.637Z,9.13
2019-03-15T23:16:24.654Z,5.80
2019-03-15T23:18:53.700Z,7.00
2019-03-15T23:21:22.699Z,8.53
2019-03-15T23:23:51.764Z,4.83
2019-03-15T23:26:20.818Z,5.73
2019-03-15T23:28:49.904Z,3.90
2019-03-15T23:31:18.874Z,4.57
2019-03-15T23:33:47.967Z,6.83
2019-03-15T23:36:17.031Z,7.40
2019-03-15T23:38:46.112Z,7.97
2019-03-15T23:41:15.188Z,9.83
2019-03-15T23:43:44.250Z,7.47
2019-03-15T23:46:13.319Z,7.40
2019-03-15T23:48:42.403Z,8.80
2019-03-15T23:51:11.462Z,7.43
2019-03-15T23:53:40.544Z,7.03
2019-03-15T23:56:09.612Z,7.70
2019-03-15T23:58:38.761Z,5.03
